sensor_id;sensor_type;location;lat;lon;timestamp;P1;durP1;ratioP1;P2;durP2;ratioP2
52650;SDS011;38537;47.226;39.702;2022-11-15T00:02:34;3.58;;;2.22;;
52650;SDS011;38537;47.226;39.702;2022-11-15T00:05:21;3.15;;;2.40;;
52650;SDS011;38537;47.226;39.702;2022-11-15T00:08:07;4.82;;;2.70;;
52650;SDS011;38537;47.226;39.702;2022-11-15T00:10:58;5.88;;;3.00;;
52650;SDS011;38537;47.226;39.702;2022-11-15T00:13:45;8.55;;;3.20;;
52650;SDS011;38537;47.226;39.702;2022-11-15T00:16:31;8.20;;;3.80;;
52650;SDS011;38537;47.226;39.702;2022-11-15T00:19:17;7.18;;;3.65;;
52650;SDS011;38537;47.226;39.702;2022-11-15T00:22:03;5.97;;;2.95;;
52650;SDS011;38537;47.226;39.702;2022-11-15T00:24:49;3.75;;;2.70;;
52650;SDS011;38537;47.226;39.702;2022-11-15T00:27:34;2.67;;;2.42;;
52650;SDS011;38537;47.226;39.702;2022-11-15T00:30:21;7.53;;;2.70;;
52650;SDS011;38537;47.226;39.702;2022-11-15T00:33:06;3.80;;;2.53;;
52650;SDS011;38537;47.226;39.702;2022-11-15T00:35:59;3.72;;;2.72;;
52650;SDS011;38537;47.226;39.702;2022-11-15T00:38:46;4.57;;;2.83;;
52650;SDS011;38537;47.226;39.702;2022-11-15T00:41:32;4.65;;;2.80;;
52650;SDS011;38537;47.226;39.702;2022-11-15T00:44:18;5.32;;;2.97;;
52650;SDS011;38537;47.226;39.702;2022-11-15T00:47:04;7.53;;;3.45;;
52650;SDS011;38537;47.226;39.702;2022-11-15T00:49:50;3.45;;;2.97;;
52650;SDS011;38537;47.226;39.702;2022-11-15T00:52:36;4.22;;;3.10;;
52650;SDS011;38537;47.226;39.702;2022-11-15T00:55:22;5.03;;;3.17;;
52650;SDS011;38537;47.226;39.702;2022-11-15T00:58:08;3.45;;;2.75;;
52650;SDS011;38537;47.226;39.702;2022-11-15T01:00:55;4.60;;;2.95;;
52650;SDS011;38537;47.226;39.702;2022-11-15T01:03:41;5.13;;;2.72;;
52650;SDS011;38537;47.226;39.702;2022-11-15T01:06:27;4.03;;;2.75;;
52650;SDS011;38537;47.226;39.702;2022-11-15T01:09:13;3.78;;;3.08;;
52650;SDS011;38537;47.226;39.702;2022-11-15T01:11:59;6.07;;;3.20;;
52650;SDS011;38537;47.226;39.702;2022-11-15T01:14:44;5.65;;;3.33;;
52650;SDS011;38537;47.226;39.702;2022-11-15T01:17:31;5.03;;;3.45;;
52650;SDS011;38537;47.226;39.702;2022-11-15T01:20:16;4.65;;;2.85;;
52650;SDS011;38537;47.226;39.702;2022-11-15T01:23:02;4.57;;;3.05;;
52650;SDS011;38537;47.226;39.702;2022-11-15T01:25:49;5.38;;;3.17;;
52650;SDS011;38537;47.226;39.702;2022-11-15T01:28:36;4.15;;;3.13;;
52650;SDS011;38537;47.226;39.702;2022-11-15T01:31:23;3.75;;;3.03;;
52650;SDS011;38537;47.226;39.702;2022-11-15T01:34:09;4.47;;;3.50;;
52650;SDS011;38537;47.226;39.702;2022-11-15T01:36:56;4.68;;;3.55;;
52650;SDS011;38537;47.226;39.702;2022-11-15T01:39:41;5.28;;;3.70;;
52650;SDS011;38537;47.226;39.702;2022-11-15T01:42:28;5.32;;;3.55;;
52650;SDS011;38537;47.226;39.702;2022-11-15T01:45:15;4.70;;;3.53;;
52650;SDS011;38537;47.226;39.702;2022-11-15T01:48:01;5.90;;;3.55;;
52650;SDS011;38537;47.226;39.702;2022-11-15T01:50:47;4.82;;;3.22;;
52650;SDS011;38537;47.226;39.702;2022-11-15T01:53:35;6.00;;;3.47;;
52650;SDS011;38537;47.226;39.702;2022-11-15T01:56:25;6.65;;;3.45;;
52650;SDS011;38537;47.226;39.702;2022-11-15T01:59:14;5.97;;;3.83;;
52650;SDS011;38537;47.226;39.702;2022-11-15T02:02:01;4.25;;;3.58;;
52650;SDS011;38537;47.226;39.702;2022-11-15T02:04:48;4.10;;;3.30;;
52650;SDS011;38537;47.226;39.702;2022-11-15T02:07:34;4.10;;;3.30;;
52650;SDS011;38537;47.226;39.702;2022-11-15T02:10:22;4.28;;;3.13;;
52650;SDS011;38537;47.226;39.702;2022-11-15T02:13:09;5.22;;;3.30;;
52650;SDS011;38537;47.226;39.702;2022-11-15T02:15:58;4.07;;;3.20;;
52650;SDS011;38537;47.226;39.702;2022-11-15T02:19:13;4.18;;;2.83;;
52650;SDS011;38537;47.226;39.702;2022-11-15T02:25:57;4.47;;;3.40;;
52650;SDS011;38537;47.226;39.702;2022-11-15T02:32:44;4.90;;;3.22;;
52650;SDS011;38537;47.226;39.702;2022-11-15T02:38:54;4.47;;;3.40;;
52650;SDS011;38537;47.226;39.702;2022-11-15T02:41:50;4.57;;;3.00;;
52650;SDS011;38537;47.226;39.702;2022-11-15T02:44:43;6.15;;;3.45;;
52650;SDS011;38537;47.226;39.702;2022-11-15T02:47:31;6.30;;;3.50;;
52650;SDS011;38537;47.226;39.702;2022-11-15T02:50:24;4.43;;;3.10;;
52650;SDS011;38537;47.226;39.702;2022-11-15T02:53:14;9.25;;;3.60;;
52650;SDS011;38537;47.226;39.702;2022-11-15T02:56:00;4.82;;;3.22;;
52650;SDS011;38537;47.226;39.702;2022-11-15T03:08:02;4.13;;;3.22;;
52650;SDS011;38537;47.226;39.702;2022-11-15T03:20:20;6.68;;;3.53;;
52650;SDS011;38537;47.226;39.702;2022-11-15T03:23:07;8.30;;;3.75;;
52650;SDS011;38537;47.226;39.702;2022-11-15T03:25:55;5.97;;;3.50;;
52650;SDS011;38537;47.226;39.702;2022-11-15T03:31:36;5.47;;;3.40;;
52650;SDS011;38537;47.226;39.702;2022-11-15T03:34:43;5.80;;;3.42;;
52650;SDS011;38537;47.226;39.702;2022-11-15T03:40:45;4.50;;;3.25;;
52650;SDS011;38537;47.226;39.702;2022-11-15T03:43:50;5.18;;;3.00;;
52650;SDS011;38537;47.226;39.702;2022-11-15T03:50:20;7.97;;;3.22;;
52650;SDS011;38537;47.226;39.702;2022-11-15T03:53:08;6.00;;;3.15;;
52650;SDS011;38537;47.226;39.702;2022-11-15T03:55:54;6.95;;;3.03;;
52650;SDS011;38537;47.226;39.702;2022-11-15T03:58:40;4.63;;;2.90;;
52650;SDS011;38537;47.226;39.702;2022-11-15T04:01:26;6.95;;;2.63;;
52650;SDS011;38537;47.226;39.702;2022-11-15T04:04:13;5.47;;;3.60;;
52650;SDS011;38537;47.226;39.702;2022-11-15T04:06:59;5.93;;;2.90;;
52650;SDS011;38537;47.226;39.702;2022-11-15T04:09:45;5.60;;;3.00;;
52650;SDS011;38537;47.226;39.702;2022-11-15T04:12:49;10.32;;;3.85;;
52650;SDS011;38537;47.226;39.702;2022-11-15T04:15:36;7.65;;;3.63;;
52650;SDS011;38537;47.226;39.702;2022-11-15T04:18:22;6.13;;;3.40;;
52650;SDS011;38537;47.226;39.702;2022-11-15T04:21:08;9.00;;;3.67;;
52650;SDS011;38537;47.226;39.702;2022-11-15T04:24:12;7.55;;;3.70;;
52650;SDS011;38537;47.226;39.702;2022-11-15T04:26:59;10.35;;;3.63;;
52650;SDS011;38537;47.226;39.702;2022-11-15T04:29:45;7.68;;;3.28;;
52650;SDS011;38537;47.226;39.702;2022-11-15T04:32:33;9.13;;;3.33;;
52650;SDS011;38537;47.226;39.702;2022-11-15T04:38:05;8.15;;;3.13;;
52650;SDS011;38537;47.226;39.702;2022-11-15T04:40:52;5.97;;;3.35;;
52650;SDS011;38537;47.226;39.702;2022-11-15T04:43:39;8.23;;;3.50;;
52650;SDS011;38537;47.226;39.702;2022-11-15T04:46:26;4.88;;;3.13;;
52650;SDS011;38537;47.226;39.702;2022-11-15T04:49:12;12.43;;;4.07;;
52650;SDS011;38537;47.226;39.702;2022-11-15T04:51:59;7.57;;;3.40;;
52650;SDS011;38537;47.226;39.702;2022-11-15T04:54:44;10.18;;;3.60;;
52650;SDS011;38537;47.226;39.702;2022-11-15T04:57:31;10.13;;;3.47;;
52650;SDS011;38537;47.226;39.702;2022-11-15T05:00:17;5.28;;;3.10;;
52650;SDS011;38537;47.226;39.702;2022-11-15T05:03:04;7.05;;;3.58;;
52650;SDS011;38537;47.226;39.702;2022-11-15T05:06:10;10.18;;;4.15;;
52650;SDS011;38537;47.226;39.702;2022-11-15T05:08:56;8.02;;;3.67;;
52650;SDS011;38537;47.226;39.702;2022-11-15T05:11:42;7.65;;;3.70;;
52650;SDS011;38537;47.226;39.702;2022-11-15T05:14:28;10.65;;;3.80;;
52650;SDS011;38537;47.226;39.702;2022-11-15T05:17:15;7.25;;;4.00;;
52650;SDS011;38537;47.226;39.702;2022-11-15T05:20:01;9.80;;;4.65;;
52650;SDS011;38537;47.226;39.702;2022-11-15T05:22:47;12.27;;;4.32;;
52650;SDS011;38537;47.226;39.702;2022-11-15T05:25:33;10.30;;;4.47;;
52650;SDS011;38537;47.226;39.702;2022-11-15T05:28:19;8.20;;;4.40;;
52650;SDS011;38537;47.226;39.702;2022-11-15T05:31:15;8.35;;;4.90;;
52650;SDS011;38537;47.226;39.702;2022-11-15T05:36:50;15.40;;;4.80;;
52650;SDS011;38537;47.226;39.702;2022-11-15T05:39:36;11.15;;;5.03;;
52650;SDS011;38537;47.226;39.702;2022-11-15T05:42:25;13.45;;;5.43;;
52650;SDS011;38537;47.226;39.702;2022-11-15T05:45:12;11.98;;;5.38;;
52650;SDS011;38537;47.226;39.702;2022-11-15T05:47:59;12.00;;;5.93;;
52650;SDS011;38537;47.226;39.702;2022-11-15T05:50:49;14.38;;;5.97;;
52650;SDS011;38537;47.226;39.702;2022-11-15T05:53:36;10.88;;;6.18;;
52650;SDS011;38537;47.226;39.702;2022-11-15T05:56:24;13.25;;;6.32;;
52650;SDS011;38537;47.226;39.702;2022-11-15T05:59:10;15.35;;;6.75;;
52650;SDS011;38537;47.226;39.702;2022-11-15T06:01:57;15.00;;;6.43;;
52650;SDS011;38537;47.226;39.702;2022-11-15T06:04:43;13.30;;;6.72;;
52650;SDS011;38537;47.226;39.702;2022-11-15T06:07:29;13.48;;;6.05;;
52650;SDS011;38537;47.226;39.702;2022-11-15T06:10:16;11.88;;;6.60;;
52650;SDS011;38537;47.226;39.702;2022-11-15T06:13:03;16.65;;;8.13;;
52650;SDS011;38537;47.226;39.702;2022-11-15T06:15:50;11.75;;;7.15;;
52650;SDS011;38537;47.226;39.702;2022-11-15T06:18:36;17.65;;;7.80;;
52650;SDS011;38537;47.226;39.702;2022-11-15T06:21:23;18.40;;;8.00;;
52650;SDS011;38537;47.226;39.702;2022-11-15T06:24:10;17.63;;;8.15;;
52650;SDS011;38537;47.226;39.702;2022-11-15T06:26:56;14.57;;;7.75;;
52650;SDS011;38537;47.226;39.702;2022-11-15T06:29:43;19.98;;;8.73;;
52650;SDS011;38537;47.226;39.702;2022-11-15T06:32:30;16.33;;;8.20;;
52650;SDS011;38537;47.226;39.702;2022-11-15T06:35:16;22.63;;;8.43;;
52650;SDS011;38537;47.226;39.702;2022-11-15T06:38:07;18.48;;;7.45;;
52650;SDS011;38537;47.226;39.702;2022-11-15T06:40:54;13.15;;;8.05;;
52650;SDS011;38537;47.226;39.702;2022-11-15T06:43:46;14.80;;;7.95;;
52650;SDS011;38537;47.226;39.702;2022-11-15T06:46:33;18.10;;;7.57;;
52650;SDS011;38537;47.226;39.702;2022-11-15T06:49:21;17.55;;;8.35;;
52650;SDS011;38537;47.226;39.702;2022-11-15T06:52:07;16.45;;;8.68;;
52650;SDS011;38537;47.226;39.702;2022-11-15T06:54:53;18.75;;;8.32;;
52650;SDS011;38537;47.226;39.702;2022-11-15T06:57:47;15.30;;;8.05;;
52650;SDS011;38537;47.226;39.702;2022-11-15T07:00:36;17.00;;;8.00;;
52650;SDS011;38537;47.226;39.702;2022-11-15T07:03:24;12.68;;;7.60;;
52650;SDS011;38537;47.226;39.702;2022-11-15T07:06:12;12.20;;;7.53;;
52650;SDS011;38537;47.226;39.702;2022-11-15T07:08:59;14.40;;;8.10;;
52650;SDS011;38537;47.226;39.702;2022-11-15T07:11:48;12.65;;;7.43;;
52650;SDS011;38537;47.226;39.702;2022-11-15T07:14:34;13.32;;;7.15;;
52650;SDS011;38537;47.226;39.702;2022-11-15T07:17:21;12.95;;;7.75;;
52650;SDS011;38537;47.226;39.702;2022-11-15T07:20:07;9.93;;;6.63;;
52650;SDS011;38537;47.226;39.702;2022-11-15T07:23:03;11.45;;;6.40;;
52650;SDS011;38537;47.226;39.702;2022-11-15T07:25:50;8.68;;;5.70;;
52650;SDS011;38537;47.226;39.702;2022-11-15T07:28:37;9.55;;;6.28;;
52650;SDS011;38537;47.226;39.702;2022-11-15T07:31:24;11.13;;;6.20;;
52650;SDS011;38537;47.226;39.702;2022-11-15T07:34:11;7.97;;;5.93;;
52650;SDS011;38537;47.226;39.702;2022-11-15T07:36:57;7.78;;;5.10;;
52650;SDS011;38537;47.226;39.702;2022-11-15T07:42:31;8.65;;;5.05;;
52650;SDS011;38537;47.226;39.702;2022-11-15T07:45:39;9.40;;;5.00;;
52650;SDS011;38537;47.226;39.702;2022-11-15T07:48:30;10.85;;;4.88;;
52650;SDS011;38537;47.226;39.702;2022-11-15T07:51:28;7.55;;;5.00;;
52650;SDS011;38537;47.226;39.702;2022-11-15T07:54:14;7.25;;;5.15;;
52650;SDS011;38537;47.226;39.702;2022-11-15T07:57:00;11.85;;;5.30;;
52650;SDS011;38537;47.226;39.702;2022-11-15T07:59:51;7.13;;;5.63;;
52650;SDS011;38537;47.226;39.702;2022-11-15T08:02:37;10.88;;;5.70;;
52650;SDS011;38537;47.226;39.702;2022-11-15T08:05:23;8.35;;;5.45;;
52650;SDS011;38537;47.226;39.702;2022-11-15T08:08:10;8.60;;;5.63;;
52650;SDS011;38537;47.226;39.702;2022-11-15T08:10:59;11.98;;;5.45;;
52650;SDS011;38537;47.226;39.702;2022-11-15T08:13:47;9.90;;;5.57;;
52650;SDS011;38537;47.226;39.702;2022-11-15T08:16:32;9.23;;;5.40;;
52650;SDS011;38537;47.226;39.702;2022-11-15T08:19:18;6.53;;;4.47;;
52650;SDS011;38537;47.226;39.702;2022-11-15T08:22:04;5.75;;;4.13;;
52650;SDS011;38537;47.226;39.702;2022-11-15T08:24:50;5.95;;;5.00;;
52650;SDS011;38537;47.226;39.702;2022-11-15T08:27:36;10.80;;;5.10;;
52650;SDS011;38537;47.226;39.702;2022-11-15T08:30:23;12.00;;;4.70;;
52650;SDS011;38537;47.226;39.702;2022-11-15T08:33:10;11.75;;;5.45;;
52650;SDS011;38537;47.226;39.702;2022-11-15T08:35:57;8.32;;;5.10;;
52650;SDS011;38537;47.226;39.702;2022-11-15T08:38:49;9.65;;;5.63;;
52650;SDS011;38537;47.226;39.702;2022-11-15T08:41:35;8.43;;;5.40;;
52650;SDS011;38537;47.226;39.702;2022-11-15T08:44:23;9.05;;;4.88;;
52650;SDS011;38537;47.226;39.702;2022-11-15T08:47:12;10.65;;;5.38;;
52650;SDS011;38537;47.226;39.702;2022-11-15T08:50:00;7.43;;;5.38;;
52650;SDS011;38537;47.226;39.702;2022-11-15T08:52:46;17.98;;;5.90;;
52650;SDS011;38537;47.226;39.702;2022-11-15T08:55:36;9.65;;;5.28;;
52650;SDS011;38537;47.226;39.702;2022-11-15T08:58:23;12.68;;;5.50;;
52650;SDS011;38537;47.226;39.702;2022-11-15T09:01:19;16.65;;;5.20;;
52650;SDS011;38537;47.226;39.702;2022-11-15T09:04:05;17.10;;;6.28;;
52650;SDS011;38537;47.226;39.702;2022-11-15T09:06:51;7.85;;;5.28;;
52650;SDS011;38537;47.226;39.702;2022-11-15T09:09:38;13.77;;;6.20;;
52650;SDS011;38537;47.226;39.702;2022-11-15T09:12:24;8.80;;;5.72;;
52650;SDS011;38537;47.226;39.702;2022-11-15T09:15:11;13.13;;;5.97;;
52650;SDS011;38537;47.226;39.702;2022-11-15T09:17:58;12.32;;;5.20;;
52650;SDS011;38537;47.226;39.702;2022-11-15T09:20:44;21.00;;;5.53;;
52650;SDS011;38537;47.226;39.702;2022-11-15T09:23:30;9.93;;;5.10;;
52650;SDS011;38537;47.226;39.702;2022-11-15T09:26:18;9.95;;;5.60;;
52650;SDS011;38537;47.226;39.702;2022-11-15T09:29:04;9.57;;;5.32;;
52650;SDS011;38537;47.226;39.702;2022-11-15T09:31:54;11.02;;;5.88;;
52650;SDS011;38537;47.226;39.702;2022-11-15T09:34:40;10.85;;;5.72;;
52650;SDS011;38537;47.226;39.702;2022-11-15T09:37:26;11.27;;;6.03;;
52650;SDS011;38537;47.226;39.702;2022-11-15T09:40:13;10.15;;;5.70;;
52650;SDS011;38537;47.226;39.702;2022-11-15T09:49:13;10.43;;;5.47;;
52650;SDS011;38537;47.226;39.702;2022-11-15T09:52:21;8.07;;;5.45;;
52650;SDS011;38537;47.226;39.702;2022-11-15T09:54:49;7.07;;;5.18;;
52650;SDS011;38537;47.226;39.702;2022-11-15T09:57:31;7.50;;;5.35;;
52650;SDS011;38537;47.226;39.702;2022-11-15T10:03:10;8.43;;;5.15;;
52650;SDS011;38537;47.226;39.702;2022-11-15T10:05:42;8.85;;;5.30;;
52650;SDS011;38537;47.226;39.702;2022-11-15T10:11:11;8.40;;;5.28;;
52650;SDS011;38537;47.226;39.702;2022-11-15T10:14:08;11.07;;;5.38;;
52650;SDS011;38537;47.226;39.702;2022-11-15T10:19:50;8.88;;;5.10;;
52650;SDS011;38537;47.226;39.702;2022-11-15T10:27:36;8.45;;;5.05;;
52650;SDS011;38537;47.226;39.702;2022-11-15T10:30:10;11.38;;;5.03;;
52650;SDS011;38537;47.226;39.702;2022-11-15T10:32:43;8.25;;;5.03;;
52650;SDS011;38537;47.226;39.702;2022-11-15T10:38:04;9.68;;;5.18;;
52650;SDS011;38537;47.226;39.702;2022-11-15T10:40:36;10.57;;;5.20;;
52650;SDS011;38537;47.226;39.702;2022-11-15T10:45:36;8.57;;;5.20;;
52650;SDS011;38537;47.226;39.702;2022-11-15T10:50:39;12.00;;;5.43;;
52650;SDS011;38537;47.226;39.702;2022-11-15T10:55:49;10.82;;;5.05;;
52650;SDS011;38537;47.226;39.702;2022-11-15T10:58:28;8.93;;;5.30;;
52650;SDS011;38537;47.226;39.702;2022-11-15T11:01:22;8.40;;;5.50;;
52650;SDS011;38537;47.226;39.702;2022-11-15T11:04:02;12.85;;;6.05;;
52650;SDS011;38537;47.226;39.702;2022-11-15T11:06:57;11.98;;;5.97;;
52650;SDS011;38537;47.226;39.702;2022-11-15T11:09:34;8.73;;;6.00;;
52650;SDS011;38537;47.226;39.702;2022-11-15T11:12:04;9.77;;;5.90;;
52650;SDS011;38537;47.226;39.702;2022-11-15T11:14:34;11.18;;;6.18;;
52650;SDS011;38537;47.226;39.702;2022-11-15T11:27:42;10.82;;;5.90;;
52650;SDS011;38537;47.226;39.702;2022-11-15T11:30:23;11.88;;;7.13;;
52650;SDS011;38537;47.226;39.702;2022-11-15T11:36:26;9.77;;;5.45;;
52650;SDS011;38537;47.226;39.702;2022-11-15T11:41:53;11.90;;;4.97;;
52650;SDS011;38537;47.226;39.702;2022-11-15T11:47:09;7.50;;;4.88;;
52650;SDS011;38537;47.226;39.702;2022-11-15T11:49:47;10.63;;;6.22;;
52650;SDS011;38537;47.226;39.702;2022-11-15T12:00:15;11.60;;;7.10;;
52650;SDS011;38537;47.226;39.702;2022-11-15T12:08:32;20.52;;;6.63;;
52650;SDS011;38537;47.226;39.702;2022-11-15T12:11:23;8.77;;;6.10;;
52650;SDS011;38537;47.226;39.702;2022-11-15T12:14:16;10.88;;;6.75;;
52650;SDS011;38537;47.226;39.702;2022-11-15T12:17:05;11.27;;;5.90;;
52650;SDS011;38537;47.226;39.702;2022-11-15T12:19:32;11.13;;;6.28;;
52650;SDS011;38537;47.226;39.702;2022-11-15T12:24:38;7.10;;;4.67;;
52650;SDS011;38537;47.226;39.702;2022-11-15T12:29:55;7.75;;;5.18;;
52650;SDS011;38537;47.226;39.702;2022-11-15T12:34:56;7.15;;;4.05;;
52650;SDS011;38537;47.226;39.702;2022-11-15T12:45:35;6.35;;;3.85;;
52650;SDS011;38537;47.226;39.702;2022-11-15T12:51:03;7.53;;;3.90;;
52650;SDS011;38537;47.226;39.702;2022-11-15T12:53:31;7.55;;;3.90;;
52650;SDS011;38537;47.226;39.702;2022-11-15T12:56:08;5.65;;;3.53;;
52650;SDS011;38537;47.226;39.702;2022-11-15T12:58:53;6.53;;;3.67;;
52650;SDS011;38537;47.226;39.702;2022-11-15T13:12:09;4.72;;;3.15;;
52650;SDS011;38537;47.226;39.702;2022-11-15T13:14:44;5.50;;;3.25;;
52650;SDS011;38537;47.226;39.702;2022-11-15T13:19:58;7.57;;;3.60;;
52650;SDS011;38537;47.226;39.702;2022-11-15T13:33:31;7.15;;;3.38;;
52650;SDS011;38537;47.226;39.702;2022-11-15T13:36:06;9.10;;;3.50;;
52650;SDS011;38537;47.226;39.702;2022-11-15T13:38:40;9.25;;;3.75;;
52650;SDS011;38537;47.226;39.702;2022-11-15T13:41:17;10.80;;;3.58;;
52650;SDS011;38537;47.226;39.702;2022-11-15T13:43:54;6.68;;;3.30;;
52650;SDS011;38537;47.226;39.702;2022-11-15T13:46:26;5.68;;;3.13;;
52650;SDS011;38537;47.226;39.702;2022-11-15T13:48:59;9.60;;;3.20;;
52650;SDS011;38537;47.226;39.702;2022-11-15T13:51:37;7.45;;;3.45;;
52650;SDS011;38537;47.226;39.702;2022-11-15T13:54:14;7.68;;;3.20;;
52650;SDS011;38537;47.226;39.702;2022-11-15T13:59:49;12.20;;;3.92;;
52650;SDS011;38537;47.226;39.702;2022-11-15T14:02:37;6.88;;;3.30;;
52650;SDS011;38537;47.226;39.702;2022-11-15T14:05:15;9.77;;;3.67;;
52650;SDS011;38537;47.226;39.702;2022-11-15T14:07:54;12.00;;;4.32;;
52650;SDS011;38537;47.226;39.702;2022-11-15T14:10:34;8.30;;;4.13;;
52650;SDS011;38537;47.226;39.702;2022-11-15T14:13:04;8.63;;;3.78;;
52650;SDS011;38537;47.226;39.702;2022-11-15T14:15:38;8.05;;;4.43;;
52650;SDS011;38537;47.226;39.702;2022-11-15T14:18:38;10.07;;;4.82;;
52650;SDS011;38537;47.226;39.702;2022-11-15T14:21:08;8.57;;;4.78;;
52650;SDS011;38537;47.226;39.702;2022-11-15T14:23:38;8.13;;;3.97;;
52650;SDS011;38537;47.226;39.702;2022-11-15T14:26:05;9.10;;;5.20;;
52650;SDS011;38537;47.226;39.702;2022-11-15T14:28:38;15.52;;;5.40;;
52650;SDS011;38537;47.226;39.702;2022-11-15T14:31:11;15.00;;;5.68;;
52650;SDS011;38537;47.226;39.702;2022-11-15T14:33:40;11.18;;;5.05;;
52650;SDS011;38537;47.226;39.702;2022-11-15T14:36:12;11.07;;;5.25;;
52650;SDS011;38537;47.226;39.702;2022-11-15T14:38:45;13.10;;;6.82;;
52650;SDS011;38537;47.226;39.702;2022-11-15T14:43:42;14.75;;;7.15;;
52650;SDS011;38537;47.226;39.702;2022-11-15T14:46:09;18.25;;;6.38;;
52650;SDS011;38537;47.226;39.702;2022-11-15T14:48:36;13.18;;;6.35;;
52650;SDS011;38537;47.226;39.702;2022-11-15T14:51:09;14.88;;;5.50;;
52650;SDS011;38537;47.226;39.702;2022-11-15T14:56:07;14.63;;;5.60;;
52650;SDS011;38537;47.226;39.702;2022-11-15T14:58:35;18.58;;;5.50;;
52650;SDS011;38537;47.226;39.702;2022-11-15T15:01:21;18.60;;;5.35;;
52650;SDS011;38537;47.226;39.702;2022-11-15T15:03:53;14.82;;;6.05;;
52650;SDS011;38537;47.226;39.702;2022-11-15T15:06:25;14.20;;;5.60;;
52650;SDS011;38537;47.226;39.702;2022-11-15T15:08:52;13.63;;;5.50;;
52650;SDS011;38537;47.226;39.702;2022-11-15T15:11:22;14.73;;;5.18;;
52650;SDS011;38537;47.226;39.702;2022-11-15T15:13:51;18.70;;;5.70;;
52650;SDS011;38537;47.226;39.702;2022-11-15T15:16:20;16.63;;;5.03;;
52650;SDS011;38537;47.226;39.702;2022-11-15T15:18:49;15.00;;;5.45;;
52650;SDS011;38537;47.226;39.702;2022-11-15T15:23:47;15.93;;;5.78;;
52650;SDS011;38537;47.226;39.702;2022-11-15T15:26:14;13.20;;;5.15;;
52650;SDS011;38537;47.226;39.702;2022-11-15T15:28:41;15.48;;;5.55;;
52650;SDS011;38537;47.226;39.702;2022-11-15T15:31:09;17.00;;;5.18;;
52650;SDS011;38537;47.226;39.702;2022-11-15T15:33:37;13.95;;;5.07;;
52650;SDS011;38537;47.226;39.702;2022-11-15T15:36:04;25.08;;;6.22;;
52650;SDS011;38537;47.226;39.702;2022-11-15T15:38:32;18.45;;;5.95;;
52650;SDS011;38537;47.226;39.702;2022-11-15T15:41:00;16.45;;;6.22;;
52650;SDS011;38537;47.226;39.702;2022-11-15T15:43:29;21.67;;;6.20;;
52650;SDS011;38537;47.226;39.702;2022-11-15T15:45:56;15.23;;;6.25;;
52650;SDS011;38537;47.226;39.702;2022-11-15T15:48:24;23.98;;;6.28;;
52650;SDS011;38537;47.226;39.702;2022-11-15T15:50:51;22.13;;;6.60;;
52650;SDS011;38537;47.226;39.702;2022-11-15T15:53:19;15.82;;;6.68;;
52650;SDS011;38537;47.226;39.702;2022-11-15T15:55:48;20.92;;;6.30;;
52650;SDS011;38537;47.226;39.702;2022-11-15T15:58:15;17.15;;;6.57;;
52650;SDS011;38537;47.226;39.702;2022-11-15T16:00:43;16.55;;;6.35;;
52650;SDS011;38537;47.226;39.702;2022-11-15T16:03:10;19.70;;;6.55;;
52650;SDS011;38537;47.226;39.702;2022-11-15T16:05:38;20.15;;;6.32;;
52650;SDS011;38537;47.226;39.702;2022-11-15T16:08:28;22.80;;;6.70;;
52650;SDS011;38537;47.226;39.702;2022-11-15T16:11:13;14.35;;;5.45;;
52650;SDS011;38537;47.226;39.702;2022-11-15T16:13:40;18.25;;;6.05;;
52650;SDS011;38537;47.226;39.702;2022-11-15T16:16:09;17.88;;;5.45;;
52650;SDS011;38537;47.226;39.702;2022-11-15T16:18:40;16.33;;;6.10;;
52650;SDS011;38537;47.226;39.702;2022-11-15T16:21:08;14.48;;;5.68;;
52650;SDS011;38537;47.226;39.702;2022-11-15T16:23:36;14.98;;;5.85;;
52650;SDS011;38537;47.226;39.702;2022-11-15T16:26:14;17.27;;;6.03;;
52650;SDS011;38537;47.226;39.702;2022-11-15T16:28:47;20.85;;;6.00;;
52650;SDS011;38537;47.226;39.702;2022-11-15T16:31:15;18.20;;;6.13;;
52650;SDS011;38537;47.226;39.702;2022-11-15T16:33:45;13.55;;;5.47;;
52650;SDS011;38537;47.226;39.702;2022-11-15T16:38:56;11.52;;;5.13;;
52650;SDS011;38537;47.226;39.702;2022-11-15T16:41:24;13.40;;;4.80;;
52650;SDS011;38537;47.226;39.702;2022-11-15T16:43:52;10.32;;;4.55;;
52650;SDS011;38537;47.226;39.702;2022-11-15T16:46:21;13.77;;;4.60;;
52650;SDS011;38537;47.226;39.702;2022-11-15T16:48:50;9.70;;;4.50;;
52650;SDS011;38537;47.226;39.702;2022-11-15T16:51:20;9.90;;;4.65;;
52650;SDS011;38537;47.226;39.702;2022-11-15T16:53:48;11.07;;;5.13;;
52650;SDS011;38537;47.226;39.702;2022-11-15T16:56:21;11.68;;;4.95;;
52650;SDS011;38537;47.226;39.702;2022-11-15T16:58:49;13.93;;;5.30;;
52650;SDS011;38537;47.226;39.702;2022-11-15T17:01:26;12.48;;;4.80;;
52650;SDS011;38537;47.226;39.702;2022-11-15T17:03:56;14.43;;;5.03;;
52650;SDS011;38537;47.226;39.702;2022-11-15T17:06:25;11.75;;;5.57;;
52650;SDS011;38537;47.226;39.702;2022-11-15T17:08:53;12.40;;;6.05;;
52650;SDS011;38537;47.226;39.702;2022-11-15T17:11:21;14.65;;;6.88;;
52650;SDS011;38537;47.226;39.702;2022-11-15T17:13:49;15.77;;;8.20;;
52650;SDS011;38537;47.226;39.702;2022-11-15T17:16:16;21.33;;;10.27;;
52650;SDS011;38537;47.226;39.702;2022-11-15T17:18:49;19.02;;;9.80;;
52650;SDS011;38537;47.226;39.702;2022-11-15T17:21:18;20.70;;;8.88;;
52650;SDS011;38537;47.226;39.702;2022-11-15T17:23:47;18.17;;;9.73;;
52650;SDS011;38537;47.226;39.702;2022-11-15T17:26:15;21.48;;;9.55;;
52650;SDS011;38537;47.226;39.702;2022-11-15T17:28:57;19.92;;;8.70;;
52650;SDS011;38537;47.226;39.702;2022-11-15T17:31:27;17.33;;;8.00;;
52650;SDS011;38537;47.226;39.702;2022-11-15T17:33:56;16.20;;;7.40;;
52650;SDS011;38537;47.226;39.702;2022-11-15T17:36:23;12.70;;;6.32;;
52650;SDS011;38537;47.226;39.702;2022-11-15T17:38:51;11.38;;;6.35;;
52650;SDS011;38537;47.226;39.702;2022-11-15T17:41:25;12.85;;;6.28;;
52650;SDS011;38537;47.226;39.702;2022-11-15T17:43:54;9.85;;;5.38;;
52650;SDS011;38537;47.226;39.702;2022-11-15T17:46:26;10.02;;;4.65;;
52650;SDS011;38537;47.226;39.702;2022-11-15T17:48:54;9.95;;;4.50;;
52650;SDS011;38537;47.226;39.702;2022-11-15T17:51:23;9.45;;;4.50;;
52650;SDS011;38537;47.226;39.702;2022-11-15T17:53:50;9.93;;;4.45;;
52650;SDS011;38537;47.226;39.702;2022-11-15T17:56:20;9.35;;;4.18;;
52650;SDS011;38537;47.226;39.702;2022-11-15T17:58:49;8.68;;;4.22;;
52650;SDS011;38537;47.226;39.702;2022-11-15T18:01:25;9.35;;;4.50;;
52650;SDS011;38537;47.226;39.702;2022-11-15T18:03:54;7.55;;;4.30;;
52650;SDS011;38537;47.226;39.702;2022-11-15T18:06:23;7.18;;;4.32;;
52650;SDS011;38537;47.226;39.702;2022-11-15T18:08:51;8.85;;;4.20;;
52650;SDS011;38537;47.226;39.702;2022-11-15T18:11:22;6.30;;;4.63;;
52650;SDS011;38537;47.226;39.702;2022-11-15T18:13:59;7.93;;;4.80;;
52650;SDS011;38537;47.226;39.702;2022-11-15T18:16:31;12.68;;;5.55;;
52650;SDS011;38537;47.226;39.702;2022-11-15T18:19:02;8.73;;;4.90;;
52650;SDS011;38537;47.226;39.702;2022-11-15T18:21:36;10.27;;;4.68;;
52650;SDS011;38537;47.226;39.702;2022-11-15T18:24:23;8.40;;;4.68;;
52650;SDS011;38537;47.226;39.702;2022-11-15T18:26:53;9.93;;;4.82;;
52650;SDS011;38537;47.226;39.702;2022-11-15T18:29:21;8.07;;;4.30;;
52650;SDS011;38537;47.226;39.702;2022-11-15T18:31:50;8.15;;;4.32;;
52650;SDS011;38537;47.226;39.702;2022-11-15T18:34:22;9.43;;;4.88;;
52650;SDS011;38537;47.226;39.702;2022-11-15T18:36:51;7.35;;;4.65;;
52650;SDS011;38537;47.226;39.702;2022-11-15T18:39:19;7.85;;;4.70;;